createdAt,value
2022-10-09T00:00:58.532Z,1.42
2022-10-09T00:06:05.430Z,0.89
2022-10-09T00:11:12.388Z,1.70
2022-10-09T00:16:19.320Z,1.33
2022-10-09T00:21:26.276Z,1.09
2022-10-09T00:26:33.228Z,0.80
2022-10-09T00:31:40.310Z,0.52
2022-10-09T00:36:47.242Z,1.46
2022-10-09T00:41:54.380Z,1.47
2022-10-09T00:47:01.292Z,1.42
2022-10-09T00:52:08.225Z,0.58
2022-10-09T00:57:15.119Z,0.87
2022-10-09T01:02:22.130Z,0.89
2022-10-09T01:07:28.975Z,0.63
2022-10-09T01:12:35.991Z,1.14
2022-10-09T01:17:42.931Z,1.19
2022-10-09T01:22:50.705Z,1.31
2022-10-09T01:27:56.511Z,2.02
2022-10-09T01:33:03.444Z,1.30
2022-10-09T01:38:10.376Z,1.29
2022-10-09T01:43:17.460Z,1.37
2022-10-09T01:48:24.394Z,1.68
2022-10-09T01:53:31.416Z,1.98
2022-10-09T01:58:38.393Z,0.98
2022-10-09T02:03:45.430Z,2.15
2022-10-09T02:08:52.357Z,2.08
2022-10-09T02:13:59.284Z,0.86
2022-10-09T02:19:06.331Z,0.94
2022-10-09T02:24:13.218Z,0.72
2022-10-09T02:29:20.212Z,1.07
2022-10-09T02:34:27.166Z,1.12
2022-10-09T02:39:34.406Z,1.14
2022-10-09T02:44:41.290Z,1.58
2022-10-09T02:49:48.445Z,0.90
2022-10-09T02:54:55.407Z,1.34
2022-10-09T03:00:02.501Z,0.90
2022-10-09T03:05:09.444Z,1.20
2022-10-09T03:10:16.464Z,1.27
2022-10-09T03:15:23.364Z,2.05
2022-10-09T03:20:30.519Z,0.86
2022-10-09T03:25:37.466Z,1.84
2022-10-09T03:30:44.418Z,1.06
2022-10-09T03:35:51.397Z,2.10
2022-10-09T03:40:58.545Z,1.35
2022-10-09T03:46:05.582Z,1.78
2022-10-09T03:51:12.639Z,0.89
2022-10-09T03:56:19.536Z,2.95
2022-10-09T04:01:26.608Z,15.24
2022-10-09T04:06:33.572Z,11.42
2022-10-09T04:11:40.632Z,10.44
2022-10-09T04:16:47.600Z,7.96
2022-10-09T04:21:54.505Z,13.51
2022-10-09T04:27:01.433Z,10.73
2022-10-09T04:32:08.434Z,11.62
2022-10-09T04:37:15.375Z,15.53
2022-10-09T04:42:22.288Z,10.69
2022-10-09T04:47:29.223Z,6.99
2022-10-09T04:52:36.160Z,7.65
2022-10-09T04:57:43.147Z,3.88
2022-10-09T05:02:50.419Z,2.81
2022-10-09T05:07:56.491Z,2.76
2022-10-09T05:13:03.440Z,1.48
2022-10-09T05:18:10.552Z,1.77
2022-10-09T05:23:17.502Z,3.24
2022-10-09T05:28:24.533Z,8.55
2022-10-09T05:33:31.363Z,7.84
2022-10-09T05:38:38.297Z,5.86
2022-10-09T05:43:45.185Z,5.12
2022-10-09T05:48:52.324Z,3.83
2022-10-09T05:53:59.268Z,2.76
2022-10-09T05:59:06.394Z,2.40
2022-10-09T06:04:13.311Z,1.82
2022-10-09T06:09:20.333Z,1.09
2022-10-09T06:14:27.287Z,2.45
2022-10-09T06:19:34.327Z,2.28
2022-10-09T06:24:41.261Z,2.27
2022-10-09T06:29:48.403Z,2.28
2022-10-09T06:34:55.367Z,3.15
2022-10-09T06:40:02.574Z,2.26
2022-10-09T06:45:09.497Z,1.14
2022-10-09T06:50:16.607Z,2.46
2022-10-09T06:55:27.929Z,1.26
2022-10-09T07:00:30.268Z,1.05
2022-10-09T07:05:37.212Z,0.83
2022-10-09T07:10:44.321Z,1.49
2022-10-09T07:15:51.315Z,1.33
2022-10-09T07:20:58.398Z,2.20
2022-10-09T07:26:05.364Z,3.62
2022-10-09T07:31:12.761Z,1.96
2022-10-09T07:36:19.746Z,1.55
2022-10-09T07:41:26.909Z,1.54
2022-10-09T07:46:34.366Z,4.11
2022-10-09T07:51:40.817Z,2.58
2022-10-09T07:56:47.962Z,10.70
2022-10-09T08:01:59.327Z,16.47
2022-10-09T08:06:56.313Z,4.25
2022-10-09T08:12:03.380Z,1.84
2022-10-09T08:17:10.598Z,1.77
2022-10-09T08:22:17.729Z,1.10
2022-10-09T08:27:24.679Z,1.75
2022-10-09T08:32:31.635Z,1.75
2022-10-09T08:37:38.762Z,1.54
2022-10-09T08:42:45.784Z,2.52
2022-10-09T08:47:52.849Z,2.85
2022-10-09T08:52:59.844Z,1.50
2022-10-09T08:58:06.936Z,1.71
2022-10-09T09:03:13.961Z,1.03
2022-10-09T09:08:21.010Z,1.47
2022-10-09T09:13:27.896Z,0.67
2022-10-09T09:18:37.573Z,0.96
2022-10-09T09:23:41.962Z,2.39
2022-10-09T09:28:48.985Z,1.53
2022-10-09T09:33:56.007Z,1.67
2022-10-09T09:39:49.922Z,2.23
2022-10-09T09:44:09.488Z,1.63
2022-10-09T09:49:16.392Z,1.88
2022-10-09T09:54:23.480Z,4.73
2022-10-09T09:59:30.446Z,1.38
2022-10-09T10:04:42.480Z,0.87
2022-10-09T10:09:43.900Z,1.65
2022-10-09T10:14:50.810Z,1.92
2022-10-09T10:19:57.733Z,1.69
2022-10-09T10:25:04.635Z,1.59
2022-10-09T10:30:11.640Z,0.83
2022-10-09T10:35:18.523Z,1.66
2022-10-09T10:40:25.536Z,3.78
2022-10-09T10:45:32.483Z,2.99
2022-10-09T10:50:39.586Z,0.71
2022-10-09T10:55:46.510Z,2.63
2022-10-09T11:00:53.586Z,1.59
2022-10-09T11:06:00.477Z,5.10
2022-10-09T11:11:07.419Z,1.95
2022-10-09T11:16:14.357Z,2.14
2022-10-09T11:21:21.396Z,2.47
2022-10-09T11:26:28.295Z,2.33
2022-10-09T11:31:35.309Z,2.10
2022-10-09T11:36:42.143Z,2.28
2022-10-09T11:41:49.073Z,2.94
2022-10-09T11:46:58.325Z,2.58
2022-10-09T11:52:02.692Z,2.83
2022-10-09T11:57:14.331Z,2.29
2022-10-09T12:02:16.377Z,1.88
2022-10-09T12:07:23.260Z,2.24
2022-10-09T12:12:30.226Z,4.47
2022-10-09T12:17:37.131Z,2.18
2022-10-09T12:22:56.420Z,4.11
2022-10-09T12:27:50.791Z,2.97
2022-10-09T12:32:57.762Z,1.89
2022-10-09T12:38:04.828Z,2.34
2022-10-09T12:43:11.757Z,3.10
2022-10-09T12:48:18.826Z,3.56
2022-10-09T12:53:25.823Z,5.83
2022-10-09T12:58:32.870Z,3.38
2022-10-09T13:03:39.782Z,4.25
2022-10-09T13:08:46.932Z,2.28
2022-10-09T13:13:53.864Z,3.07
2022-10-09T13:19:00.861Z,3.02
2022-10-09T13:24:07.786Z,3.35
2022-10-09T13:29:14.760Z,5.95
2022-10-09T13:34:21.682Z,4.92
2022-10-09T13:39:28.750Z,6.09
2022-10-09T13:44:35.699Z,5.66
2022-10-09T13:54:49.740Z,5.91
2022-10-09T14:05:03.917Z,9.29
2022-10-09T14:10:11.029Z,6.92
2022-10-09T14:50:56.451Z,8.98
2022-10-09T14:56:06.060Z,11.92
2022-10-09T15:01:13.134Z,11.64
2022-10-09T15:06:26.595Z,11.18
2022-10-09T15:11:23.641Z,10.05
2022-10-09T15:16:33.605Z,13.82
2022-10-09T15:21:40.693Z,15.12
2022-10-09T15:26:47.619Z,13.92
2022-10-09T15:31:59.774Z,12.45
2022-10-09T15:36:56.770Z,14.92
2022-10-09T15:42:04.011Z,13.89
2022-10-09T15:47:16.397Z,13.49
2022-10-09T15:52:19.561Z,13.04
2022-10-09T15:57:26.486Z,11.92
2022-10-09T16:02:37.528Z,20.15
2022-10-09T16:07:34.439Z,17.30
2022-10-09T16:12:44.987Z,17.72
2022-10-09T16:17:41.905Z,19.31
2022-10-09T16:22:49.182Z,17.28
2022-10-09T16:27:55.873Z,18.80
2022-10-09T16:33:02.821Z,15.87
2022-10-09T16:38:09.927Z,16.70
2022-10-09T16:43:16.890Z,19.24
2022-10-09T16:48:23.904Z,19.54
2022-10-09T16:53:30.823Z,19.41
2022-10-09T16:58:37.915Z,15.04
2022-10-09T17:03:44.845Z,23.11
2022-10-09T17:08:52.133Z,23.73
2022-10-09T17:13:59.050Z,19.07
2022-10-09T17:19:06.117Z,20.47
2022-10-09T17:24:13.030Z,17.52
2022-10-09T17:29:20.195Z,20.39
2022-10-09T17:34:27.084Z,14.88
2022-10-09T17:39:35.005Z,19.65
2022-10-09T17:44:41.944Z,19.00
2022-10-09T17:49:49.031Z,19.74
2022-10-09T17:54:55.977Z,19.84
2022-10-09T18:00:03.332Z,16.57
2022-10-09T18:05:10.124Z,17.07
2022-10-09T18:10:17.238Z,17.97
2022-10-09T18:15:24.173Z,13.50
2022-10-09T18:20:31.169Z,14.42
2022-10-09T18:25:38.099Z,15.82
2022-10-09T18:30:45.423Z,20.57
2022-10-09T18:35:52.391Z,14.41
2022-10-09T18:40:59.509Z,21.35
2022-10-09T18:46:06.488Z,24.96
2022-10-09T18:51:13.692Z,23.98
2022-10-09T18:56:20.602Z,29.51
2022-10-09T19:01:27.800Z,23.74
2022-10-09T19:06:34.616Z,20.58
2022-10-09T19:11:41.625Z,20.80
2022-10-09T19:16:48.570Z,21.09
2022-10-09T19:21:55.713Z,14.81
2022-10-09T19:27:02.665Z,18.80
2022-10-09T19:32:09.644Z,12.03
2022-10-09T19:37:16.582Z,12.12
2022-10-09T19:42:23.544Z,12.19
2022-10-09T19:47:30.513Z,11.55
2022-10-09T19:52:37.568Z,11.35
2022-10-09T19:57:44.527Z,12.76
2022-10-09T20:02:51.852Z,18.69
2022-10-09T20:07:58.067Z,14.27
2022-10-09T20:13:05.223Z,14.19
2022-10-09T20:18:12.286Z,12.44
2022-10-09T20:23:19.309Z,19.19
2022-10-09T20:28:26.216Z,16.03
2022-10-09T20:33:33.226Z,16.61
2022-10-09T20:38:40.198Z,17.95
2022-10-09T20:43:47.204Z,13.18
2022-10-09T20:48:54.213Z,15.48
2022-10-09T20:54:01.311Z,13.44
2022-10-09T20:59:08.286Z,21.56
2022-10-09T21:04:15.380Z,16.92
2022-10-09T21:09:22.365Z,17.84
2022-10-09T21:14:29.452Z,25.07
2022-10-09T21:19:36.409Z,20.65
2022-10-09T21:24:43.394Z,22.33
2022-10-09T21:29:50.288Z,16.58
2022-10-09T21:34:57.312Z,18.45
2022-10-09T21:40:04.264Z,18.27
2022-10-09T21:45:11.312Z,20.64
2022-10-09T21:50:18.275Z,17.92
2022-10-09T21:55:25.398Z,20.50
2022-10-09T22:00:32.288Z,18.91
2022-10-09T22:05:39.416Z,15.79
2022-10-09T22:10:46.310Z,13.22
2022-10-09T22:15:53.372Z,13.55
2022-10-09T22:21:00.267Z,15.28
2022-10-09T22:26:07.289Z,15.28
2022-10-09T22:31:14.190Z,19.06
2022-10-09T22:36:21.216Z,12.17
2022-10-09T22:41:28.104Z,17.72
2022-10-09T22:46:35.106Z,17.42
2022-10-09T22:51:41.989Z,17.90
2022-10-09T22:56:48.926Z,23.19
2022-10-09T23:01:55.945Z,19.90
2022-10-09T23:07:02.976Z,22.34
2022-10-09T23:12:09.922Z,23.77
2022-10-09T23:17:16.950Z,16.29
2022-10-09T23:22:23.878Z,18.63
2022-10-09T23:27:30.821Z,20.65
2022-10-09T23:32:37.777Z,18.27
2022-10-09T23:37:44.766Z,16.85
2022-10-09T23:42:52.111Z,18.56
2022-10-09T23:47:58.218Z,20.73
2022-10-09T23:53:05.155Z,17.67
2022-10-09T23:58:12.135Z,16.39
